createdAt,value
2023-04-19T00:05:22.957Z,98062.78
2023-04-19T00:15:25.538Z,98055.09
2023-04-19T00:25:28.813Z,98059.19
2023-04-19T00:35:31.187Z,98046.16
2023-04-19T00:45:35.269Z,98044.22
2023-04-19T00:55:39.233Z,98047.63
2023-04-19T01:05:42.044Z,98037.84
2023-04-19T01:15:44.547Z,98032.81
2023-04-19T01:25:47.924Z,98033.47
2023-04-19T01:35:50.888Z,98036.69
2023-04-19T01:45:53.200Z,98029.56
2023-04-19T01:55:55.839Z,98032.72
2023-04-19T02:05:58.027Z,98020.63
2023-04-19T02:16:02.630Z,98012.00
2023-04-19T02:26:04.955Z,98016.72
2023-04-19T02:36:07.461Z,98014.88
2023-04-19T02:46:10.863Z,98003.94
2023-04-19T02:56:13.207Z,98003.94
2023-04-19T03:06:17.155Z,98001.72
2023-04-19T03:16:19.334Z,97997.84
2023-04-19T03:26:21.684Z,98002.78
2023-04-19T03:36:23.933Z,98012.31
2023-04-19T03:46:26.584Z,98008.81
2023-04-19T03:56:28.871Z,97995.16
2023-04-19T04:06:31.148Z,97996.87
2023-04-19T04:16:33.415Z,97992.91
2023-04-19T04:26:39.580Z,97984.19
2023-04-19T04:36:42.320Z,97988.37
2023-04-19T04:46:44.592Z,97998.44
2023-04-19T04:56:46.974Z,98009.16
2023-04-19T05:06:49.118Z,98009.38
2023-04-19T05:16:51.570Z,97997.37
2023-04-19T05:26:53.694Z,98016.53
2023-04-19T05:36:56.194Z,98021.88
2023-04-19T05:46:58.686Z,98026.50
2023-04-19T05:57:01.716Z,98023.16
2023-04-19T06:07:06.227Z,98026.03
2023-04-19T06:17:10.532Z,98025.09
2023-04-19T06:27:12.910Z,98038.88
2023-04-19T06:37:15.541Z,98025.16
2023-04-19T06:47:17.820Z,98028.84
2023-04-19T06:57:20.163Z,98027.59
2023-04-19T07:07:22.702Z,98035.84
2023-04-19T07:17:24.932Z,98030.78
2023-04-19T07:27:27.286Z,98030.72
2023-04-19T07:37:30.502Z,98029.38
2023-04-19T07:47:33.051Z,98026.44
2023-04-19T07:57:36.262Z,98036.53
2023-04-19T08:07:38.982Z,98040.56
2023-04-19T08:17:43.455Z,98035.53
2023-04-19T08:27:46.275Z,98031.25
2023-04-19T08:37:49.731Z,98020.63
2023-04-19T08:47:59.699Z,98021.06
2023-04-19T08:58:05.769Z,98016.16
2023-04-19T09:08:25.747Z,98024.78
2023-04-19T09:18:31.126Z,98018.50
2023-04-19T09:28:34.599Z,98011.63
2023-04-19T09:38:50.570Z,98000.34
2023-04-19T09:48:52.939Z,97997.31
2023-04-19T09:59:01.661Z,97985.44
2023-04-19T10:09:15.934Z,97974.47
2023-04-19T10:19:20.216Z,97972.91
2023-04-19T10:29:41.101Z,97966.28
2023-04-19T10:39:45.232Z,97952.22
2023-04-19T10:49:47.641Z,97950.37
2023-04-19T11:00:11.299Z,97951.28
2023-04-19T11:10:13.541Z,97933.81
2023-04-19T11:20:16.219Z,97929.38
2023-04-19T11:30:21.011Z,97921.50
2023-04-19T11:40:24.113Z,97905.69
2023-04-19T11:50:40.018Z,97889.53
2023-04-19T12:00:47.465Z,97885.94
2023-04-19T12:10:57.590Z,97881.75
2023-04-19T12:21:04.492Z,97869.47
2023-04-19T12:31:06.761Z,97868.53
2023-04-19T12:41:09.557Z,97867.00
2023-04-19T12:51:11.848Z,97850.97
2023-04-19T13:01:14.348Z,97846.13
2023-04-19T13:11:18.131Z,97832.00
2023-04-19T13:21:20.731Z,97818.94
2023-04-19T13:31:23.133Z,97809.19
2023-04-19T13:41:25.716Z,97799.00
2023-04-19T13:51:38.744Z,97785.13
2023-04-19T14:01:45.479Z,97770.16
2023-04-19T14:11:49.195Z,97761.03
2023-04-19T14:21:51.602Z,97759.13
2023-04-19T14:31:53.945Z,97729.47
2023-04-19T14:41:57.982Z,97715.44
2023-04-19T14:52:00.476Z,97712.25
2023-04-19T15:02:02.769Z,97699.63
2023-04-19T15:12:05.105Z,97698.28
2023-04-19T15:22:07.634Z,97697.53
2023-04-19T15:32:09.997Z,97681.72
2023-04-19T15:42:12.541Z,97675.63
2023-04-19T15:52:14.918Z,97662.16
2023-04-19T16:02:17.861Z,97661.09
2023-04-19T16:12:20.485Z,97651.59
2023-04-19T16:22:23.023Z,97662.88
2023-04-19T16:32:25.557Z,97656.19
2023-04-19T16:42:28.450Z,97652.87
2023-04-19T16:52:32.311Z,97651.22
2023-04-19T17:02:35.015Z,97639.53
2023-04-19T17:12:37.535Z,97633.28
2023-04-19T17:22:39.862Z,97623.53
2023-04-19T17:32:42.231Z,97625.66
2023-04-19T17:42:44.574Z,97622.87
2023-04-19T17:52:47.642Z,97611.97
2023-04-19T18:02:50.400Z,97608.13
2023-04-19T18:12:54.368Z,97610.69
2023-04-19T18:22:59.331Z,97602.13
2023-04-19T18:33:01.905Z,97609.56
2023-04-19T18:43:04.906Z,97608.56
2023-04-19T18:53:07.479Z,97607.78
2023-04-19T19:03:29.099Z,97607.03
2023-04-19T19:13:32.267Z,97612.44
2023-04-19T19:23:36.211Z,97621.38
2023-04-19T19:33:42.059Z,97617.63
2023-04-19T19:43:45.600Z,97612.19
2023-04-19T19:53:48.004Z,97618.38
2023-04-19T20:03:50.834Z,97621.63
2023-04-19T20:13:53.774Z,97631.06
2023-04-19T20:23:56.275Z,97664.28
2023-04-19T20:33:59.792Z,97682.63
2023-04-19T20:44:02.669Z,97674.94
2023-04-19T20:54:04.847Z,97693.03
2023-04-19T21:04:09.456Z,97690.91
2023-04-19T21:14:11.738Z,97700.50
2023-04-19T21:24:14.030Z,97697.19
2023-04-19T21:34:16.402Z,97700.19
2023-04-19T21:44:18.535Z,97704.13
2023-04-19T21:54:32.885Z,97713.91
2023-04-19T22:04:36.915Z,97706.09
2023-04-19T22:14:39.310Z,97709.47
2023-04-19T22:24:56.165Z,97703.47
2023-04-19T22:34:59.681Z,97691.06
2023-04-19T22:45:02.133Z,97679.19
2023-04-19T22:55:04.586Z,97670.53
2023-04-19T23:05:07.165Z,97642.69
2023-04-19T23:15:10.864Z,97615.69
2023-04-19T23:25:13.127Z,97630.81
2023-04-19T23:35:15.478Z,97608.53
2023-04-19T23:45:17.795Z,97604.75
2023-04-19T23:55:20.099Z,97595.78
